Ohansk, Russia
Current Conditions -  °F | °C
As of 4:00 AM on Sunday 26 Oct 2014 (Local Time) from USPP Reporting Station
Clear Clear  
Wind Chill: -2°   Ceiling: Unl
Heat Index:   Visibility: 6mi
Dew Point:   Wind: 7mph
Humidity: 92%   Direction: 270°W
Pressure: 30.27"   Gusts: NA
Location:  57.72°N, 55.38°E
Report Text: USPP 252300Z 27003MPS CAVOK M13/M14 Q1025 03810255 NOSIG RMKQFE758/1011
Loading
Personal Weather Stations






























Interactive Weather Map
Tropical Storm Tracking
New forecast layout! Learn more

10-Day Weather Forecast

Advertisements
Track Severe Weather on mobile